Time;durP1;ratioP1;P1;durP2;ratioP2;P2;SDS_P1;SDS_P2;PMS_P1;PMS_P2;Temp;Humidity;BMP_temperature;BMP_pressure;BME280_temperature;BME280_humidity;BME280_pressure;Samples;Min_cycle;Max_cycle;Signal;HPM_P1;HPM_P2
2023/03/03 00:01:20;;;;;;;83.60;36.10;;;;;;;-2.52;71.81;100587.52;131117;1256;106375;-74
2023/03/03 00:04:26;;;;;;;82.40;36.70;;;;;;;-2.54;72.00;100580.27;131163;1255;106054;-74
2023/03/03 00:07:32;;;;;;;86.70;38.70;;;;;;;-2.55;71.85;100577.36;131217;1254;106743;-75
2023/03/03 00:10:38;;;;;;;96.80;38.90;;;;;;;-2.55;72.27;100576.67;131220;1257;107527;-73
2023/03/03 00:13:48;;;;;;;90.90;38.40;;;;;;;-2.57;72.18;100569.95;131238;1254;108693;-74
2023/03/03 00:16:54;;;;;;;95.60;39.70;;;;;;;-2.58;72.20;100570.15;131126;1257;107600;-75
2023/03/03 00:20:02;;;;;;;88.50;37.50;;;;;;;-2.58;71.99;100572.08;131076;1264;106528;-74
2023/03/03 00:23:16;;;;;;;102.00;38.70;;;;;;;-2.60;71.97;100570.59;131274;1255;107446;-75
2023/03/03 00:26:27;;;;;;;99.60;39.40;;;;;;;-2.62;72.27;100566.13;131141;1257;107453;-74
2023/03/03 00:29:36;;;;;;;94.70;37.50;;;;;;;-2.63;72.04;100562.20;130976;1266;106131;-77
2023/03/03 00:32:46;;;;;;;109.10;39.10;;;;;;;-2.66;71.84;100560.54;130963;1263;106754;-75
2023/03/03 00:35:51;;;;;;;97.00;37.30;;;;;;;-2.72;71.86;100555.73;131022;1254;107543;-76
2023/03/03 00:39:11;;;;;;;98.10;37.10;;;;;;;-2.77;71.55;100558.02;130941;1254;107241;-74
2023/03/03 00:42:18;;;;;;;100.40;38.20;;;;;;;-2.70;71.86;100561.42;130967;1254;107623;-74
2023/03/03 00:45:35;;;;;;;106.60;38.20;;;;;;;-2.61;71.77;100560.50;131113;1251;107309;-74
2023/03/03 00:48:45;;;;;;;125.00;43.00;;;;;;;-2.57;71.68;100559.83;131183;1264;108720;-75
2023/03/03 00:51:51;;;;;;;124.40;43.90;;;;;;;-2.59;71.47;100555.23;131135;1255;107451;-73
2023/03/03 00:54:57;;;;;;;113.90;41.50;;;;;;;-2.65;71.41;100560.70;131208;1255;107503;-74
2023/03/03 00:58:03;;;;;;;111.70;41.60;;;;;;;-2.75;71.26;100561.78;131223;1251;106241;-74
2023/03/03 01:01:11;;;;;;;109.40;40.20;;;;;;;-2.73;71.59;100563.61;131192;1251;107415;-73
2023/03/03 01:04:23;;;;;;;108.00;41.50;;;;;;;-2.75;71.47;100560.02;130994;1254;106488;-72
2023/03/03 01:07:28;;;;;;;101.80;39.20;;;;;;;-2.74;71.56;100555.48;131122;1256;107503;-73
2023/03/03 01:10:37;;;;;;;107.50;40.60;;;;;;;-2.75;71.68;100554.80;131074;1258;107531;-74
2023/03/03 01:13:46;;;;;;;104.90;38.90;;;;;;;-2.77;71.62;100550.70;131137;1254;108717;-75
2023/03/03 01:16:52;;;;;;;101.70;38.90;;;;;;;-2.86;71.53;100538.37;131113;1256;106773;-74
2023/03/03 01:19:57;;;;;;;107.80;40.30;;;;;;;-2.91;71.62;100530.90;131214;1263;107549;-72
2023/03/03 01:23:03;;;;;;;102.70;39.10;;;;;;;-2.93;71.50;100529.21;131093;1257;107454;-74
2023/03/03 01:26:09;;;;;;;108.90;39.80;;;;;;;-2.99;71.34;100521.62;130915;1256;107536;-75
2023/03/03 01:29:15;;;;;;;104.10;39.00;;;;;;;-3.03;71.57;100518.48;131082;1257;107281;-73
2023/03/03 01:32:21;;;;;;;102.90;38.50;;;;;;;-3.05;71.76;100509.17;131178;1256;105475;-75
2023/03/03 01:35:28;;;;;;;91.30;36.50;;;;;;;-3.10;71.71;100508.67;130936;1251;107552;-76
2023/03/03 01:38:36;;;;;;;94.40;36.40;;;;;;;-3.17;71.32;100508.77;130944;1254;106519;-73
2023/03/03 01:41:42;;;;;;;104.90;39.40;;;;;;;-3.31;71.40;100512.09;131031;1251;108743;-74
2023/03/03 01:44:49;;;;;;;92.90;36.90;;;;;;;-3.32;71.60;100511.61;131183;1257;107519;-74
2023/03/03 01:47:59;;;;;;;94.90;36.70;;;;;;;-3.29;71.51;100514.63;131212;1263;108103;-75
2023/03/03 01:51:15;;;;;;;101.80;37.20;;;;;;;-3.32;71.27;100512.98;131143;1254;107527;-74
2023/03/03 01:54:25;;;;;;;102.40;37.30;;;;;;;-3.31;71.74;100512.27;131181;1257;107442;-74
2023/03/03 01:57:38;;;;;;;103.80;37.10;;;;;;;-3.29;71.45;100511.14;131114;1254;107534;-74
2023/03/03 02:00:50;;;;;;;95.50;34.30;;;;;;;-3.31;71.28;100503.55;130852;1258;105663;-74
2023/03/03 02:03:57;;;;;;;98.80;36.60;;;;;;;-3.33;71.79;100498.77;131043;1254;107536;-75
2023/03/03 02:07:09;;;;;;;86.70;34.20;;;;;;;-3.34;71.38;100500.73;130967;1254;107324;-75
2023/03/03 02:10:18;;;;;;;92.70;36.60;;;;;;;-3.35;71.64;100500.04;131022;1258;107232;-74
2023/03/03 02:13:23;;;;;;;96.40;37.20;;;;;;;-3.34;71.81;100504.73;130905;1255;107320;-74
2023/03/03 02:16:29;;;;;;;94.20;36.50;;;;;;;-3.34;71.58;100495.15;130909;1254;105566;-74
2023/03/03 02:19:44;;;;;;;98.60;37.20;;;;;;;-3.35;71.57;100495.38;130848;1258;107670;-73
2023/03/03 02:22:55;;;;;;;92.80;36.40;;;;;;;-3.36;71.56;100488.09;131231;1255;107417;-74
2023/03/03 02:26:12;;;;;;;94.60;36.00;;;;;;;-3.35;71.99;100480.39;131197;1255;107543;-74
2023/03/03 02:29:17;;;;;;;93.10;34.40;;;;;;;-3.35;71.85;100479.01;130927;1251;106556;-74
2023/03/03 02:32:24;;;;;;;92.40;36.60;;;;;;;-3.39;72.01;100485.61;130832;1254;107510;-76
2023/03/03 02:35:35;;;;;;;94.80;35.10;;;;;;;-3.36;72.12;100488.80;130920;1251;107296;-75
2023/03/03 02:38:48;;;;;;;96.20;36.20;;;;;;;-3.28;71.98;100482.02;130962;1251;107563;-74
2023/03/03 02:42:00;;;;;;;94.70;35.90;;;;;;;-3.19;71.64;100482.92;131072;1263;107555;-74
2023/03/03 02:45:11;;;;;;;91.60;34.50;;;;;;;-3.12;71.80;100484.72;131158;1254;107454;-74
2023/03/03 02:48:17;;;;;;;91.30;35.70;;;;;;;-3.05;71.73;100479.94;130955;1251;107548;-74
2023/03/03 02:51:23;;;;;;;94.50;35.20;;;;;;;-2.99;71.57;100478.48;131146;1257;107540;-74
2023/03/03 02:54:30;;;;;;;93.10;34.20;;;;;;;-2.95;71.56;100476.21;131083;1263;107519;-73
2023/03/03 02:57:36;;;;;;;91.00;35.60;;;;;;;-2.95;71.59;100477.29;131043;1257;107355;-74
2023/03/03 03:00:43;;;;;;;86.40;34.50;;;;;;;-3.02;71.47;100473.71;131056;1255;107494;-74
2023/03/03 03:03:49;;;;;;;88.60;34.70;;;;;;;-3.08;71.50;100483.88;131021;1255;106642;-69
2023/03/03 03:06:57;;;;;;;87.40;33.70;;;;;;;-3.12;71.58;100488.58;131060;1251;107536;-74
2023/03/03 03:10:04;;;;;;;92.50;35.30;;;;;;;-3.15;71.67;100487.45;131147;1251;107526;-75
2023/03/03 03:13:11;;;;;;;95.20;34.60;;;;;;;-3.20;71.57;100488.52;130931;1251;107604;-73
2023/03/03 03:16:20;;;;;;;84.00;33.60;;;;;;;-3.25;71.74;100495.34;130838;1256;107547;-74
2023/03/03 03:19:25;;;;;;;82.20;31.70;;;;;;;-3.36;71.30;100493.83;130981;1254;106917;-73
2023/03/03 03:22:32;;;;;;;87.60;33.90;;;;;;;-3.42;71.75;100493.00;130946;1254;107505;-74
2023/03/03 03:25:44;;;;;;;84.20;33.60;;;;;;;-3.44;71.71;100491.02;131080;1255;107524;-73
2023/03/03 03:28:51;;;;;;;89.70;33.30;;;;;;;-3.46;71.72;100490.23;131193;1263;107953;-74
2023/03/03 03:31:57;;;;;;;84.60;35.00;;;;;;;-3.46;71.76;100493.88;130898;1257;107531;-74
2023/03/03 03:35:03;;;;;;;85.00;36.40;;;;;;;-3.45;71.78;100494.36;131161;1254;107507;-74
2023/03/03 03:38:09;;;;;;;94.10;38.20;;;;;;;-3.38;72.08;100498.09;130997;1254;107538;-74
2023/03/03 03:41:15;;;;;;;92.40;38.60;;;;;;;-3.32;72.36;100498.90;131177;1250;107632;-76
2023/03/03 03:44:22;;;;;;;91.60;37.30;;;;;;;-3.25;74.13;100500.02;131077;1254;107889;-74
2023/03/03 03:47:29;;;;;;;90.00;36.70;;;;;;;-3.11;75.28;100498.27;130967;1254;107627;-75
2023/03/03 03:50:37;;;;;;;84.40;36.10;;;;;;;-2.92;75.54;100494.05;130931;1251;107590;-75
2023/03/03 03:53:44;;;;;;;90.30;36.00;;;;;;;-2.70;76.48;100492.45;130959;1254;107552;-76
2023/03/03 03:56:51;;;;;;;94.30;35.90;;;;;;;-2.47;76.24;100484.55;130970;1254;107516;-74
2023/03/03 03:59:57;;;;;;;102.60;39.60;;;;;;;-2.21;76.72;100475.42;130999;1254;108641;-73
2023/03/03 04:03:03;;;;;;;98.40;38.10;;;;;;;-1.99;76.91;100476.71;130847;1256;107566;-76
2023/03/03 04:06:09;;;;;;;104.10;39.30;;;;;;;-1.86;77.93;100475.80;130948;1255;107844;-74
2023/03/03 04:09:16;;;;;;;92.70;36.10;;;;;;;-1.77;77.82;100475.74;130836;1257;107402;-75
2023/03/03 04:12:22;;;;;;;306.00;87.30;;;;;;;-1.70;77.52;100465.16;130931;1255;107645;-74
2023/03/03 04:15:28;;;;;;;231.80;74.90;;;;;;;-1.59;77.47;100456.96;131021;1251;107570;-74
2023/03/03 04:18:34;;;;;;;129.00;47.60;;;;;;;-1.47;77.65;100445.80;131007;1257;107483;-74
2023/03/03 04:21:40;;;;;;;185.20;60.90;;;;;;;-1.41;77.44;100444.95;130861;1266;107668;-71
2023/03/03 04:24:47;;;;;;;131.40;43.80;;;;;;;-1.32;77.83;100442.64;130868;1251;107466;-73
2023/03/03 04:27:53;;;;;;;137.60;47.20;;;;;;;-1.22;77.98;100445.66;130980;1257;107511;-74
2023/03/03 04:31:00;;;;;;;138.00;45.40;;;;;;;-1.10;78.34;100447.36;131055;1257;107477;-73
2023/03/03 04:34:06;;;;;;;182.60;55.30;;;;;;;-1.03;78.47;100446.14;131195;1256;107572;-73
2023/03/03 04:37:12;;;;;;;665.40;182.40;;;;;;;-0.93;78.44;100446.71;130877;1257;175423;-74
2023/03/03 04:40:18;;;;;;;135.90;44.60;;;;;;;-0.83;78.23;100438.14;130894;1263;107413;-74
2023/03/03 04:43:26;;;;;;;250.80;81.30;;;;;;;-0.78;78.57;100440.57;130923;1254;107465;-73
2023/03/03 04:46:32;;;;;;;788.30;246.70;;;;;;;-0.76;78.58;100438.20;130906;1254;107569;-74
2023/03/03 04:49:38;;;;;;;566.90;176.30;;;;;;;-0.73;78.41;100431.91;130966;1254;107578;-74
2023/03/03 04:52:44;;;;;;;213.80;67.60;;;;;;;-0.66;78.55;100422.83;130855;1257;107596;-70
2023/03/03 04:55:52;;;;;;;93.70;36.00;;;;;;;-0.66;78.52;100425.10;131163;1254;107527;-71
2023/03/03 04:58:59;;;;;;;188.20;89.90;;;;;;;-0.70;79.41;100430.70;130881;1256;107491;-74
2023/03/03 05:02:05;;;;;;;147.80;57.60;;;;;;;-0.70;79.18;100429.68;130933;1254;108637;-74
2023/03/03 05:05:12;;;;;;;70.40;30.10;;;;;;;-0.66;80.51;100434.88;130926;1254;107411;-75
2023/03/03 05:08:18;;;;;;;73.40;30.90;;;;;;;-0.71;80.79;100437.73;131071;1265;107593;-74
2023/03/03 05:11:24;;;;;;;88.50;38.40;;;;;;;-0.71;81.06;100433.23;131007;1251;108447;-74
2023/03/03 05:14:30;;;;;;;74.60;31.00;;;;;;;-0.66;80.37;100423.66;130974;1254;106985;-73
2023/03/03 05:17:36;;;;;;;104.50;40.40;;;;;;;-0.64;80.58;100426.23;130933;1255;107428;-74
2023/03/03 05:20:42;;;;;;;129.60;52.60;;;;;;;-0.65;80.44;100426.81;130922;1254;107588;-74
2023/03/03 05:23:48;;;;;;;89.40;36.60;;;;;;;-0.61;80.27;100416.28;130913;1250;107519;-74
2023/03/03 05:26:54;;;;;;;119.70;47.90;;;;;;;-0.55;79.95;100428.02;130976;1254;105612;-74
2023/03/03 05:29:59;;;;;;;250.40;67.30;;;;;;;-0.48;80.06;100428.73;131157;1255;107245;-73
2023/03/03 05:33:06;;;;;;;179.70;52.10;;;;;;;-0.38;80.03;100433.66;131075;1250;108807;-74
2023/03/03 05:36:11;;;;;;;222.60;64.10;;;;;;;-0.29;80.06;100435.77;131061;1254;107583;-74
2023/03/03 05:39:17;;;;;;;148.60;44.50;;;;;;;-0.20;79.95;100434.63;131099;1257;107293;-74
2023/03/03 05:42:23;;;;;;;333.70;92.80;;;;;;;-0.15;79.89;100436.31;131152;1251;107308;-73
2023/03/03 05:45:28;;;;;;;322.50;84.60;;;;;;;-0.11;79.81;100435.73;131156;1254;107513;-74
2023/03/03 05:48:34;;;;;;;264.80;71.20;;;;;;;-0.07;79.90;100435.55;131173;1254;107435;-75
2023/03/03 05:51:40;;;;;;;382.00;108.40;;;;;;;-0.06;79.69;100437.02;131166;1250;107256;-73
2023/03/03 05:54:46;;;;;;;434.80;119.90;;;;;;;-0.01;79.73;100432.95;131100;1251;107461;-74
2023/03/03 05:57:51;;;;;;;347.80;87.90;;;;;;;0.02;79.59;100435.58;131092;1256;107492;-74
2023/03/03 06:00:57;;;;;;;216.60;56.20;;;;;;;0.06;79.70;100428.02;131178;1255;107458;-74
2023/03/03 06:04:03;;;;;;;319.90;75.20;;;;;;;0.10;79.89;100437.58;130990;1251;105795;-74
2023/03/03 06:07:09;;;;;;;151.30;40.30;;;;;;;0.16;79.98;100439.88;131057;1256;107552;-73
2023/03/03 06:10:14;;;;;;;569.60;139.00;;;;;;;0.25;79.84;100436.27;130898;1254;107506;-73
2023/03/03 06:13:21;;;;;;;369.10;87.60;;;;;;;0.37;79.81;100438.09;130982;1254;106347;-75
2023/03/03 06:16:26;;;;;;;449.50;110.40;;;;;;;0.43;79.92;100436.00;131100;1255;107294;-74
2023/03/03 06:19:32;;;;;;;484.90;118.70;;;;;;;0.46;79.93;100434.27;131136;1254;107568;-76
2023/03/03 06:22:38;;;;;;;354.50;83.20;;;;;;;0.50;79.92;100436.16;130946;1254;107458;-76
2023/03/03 06:25:43;;;;;;;912.20;240.80;;;;;;;0.53;79.93;100437.02;131123;1250;106721;-73
2023/03/03 06:28:52;;;;;;;736.00;188.70;;;;;;;0.56;80.05;100440.02;131154;1257;107634;-74
2023/03/03 06:31:58;;;;;;;549.30;127.10;;;;;;;0.63;80.05;100436.84;131026;1251;107376;-74
2023/03/03 06:35:05;;;;;;;717.50;195.50;;;;;;;0.68;79.97;100430.81;131113;1254;107587;-75
2023/03/03 06:38:10;;;;;;;385.20;95.60;;;;;;;0.74;80.01;100425.90;131026;1255;107552;-75
2023/03/03 06:41:16;;;;;;;283.60;71.10;;;;;;;0.82;80.15;100430.52;130970;1250;107588;-74
2023/03/03 06:44:22;;;;;;;390.90;99.40;;;;;;;0.82;80.21;100430.36;131192;1250;108150;-75
2023/03/03 06:47:27;;;;;;;499.80;124.80;;;;;;;0.85;80.30;100421.94;130967;1254;107545;-77
2023/03/03 06:50:33;;;;;;;415.30;105.20;;;;;;;0.93;80.04;100426.77;130990;1251;107241;-76
2023/03/03 06:53:39;;;;;;;159.90;49.30;;;;;;;0.95;80.07;100429.95;130962;1251;107829;-74
2023/03/03 06:56:46;;;;;;;95.60;37.10;;;;;;;0.84;80.16;100429.18;130988;1254;107537;-76
2023/03/03 06:59:55;;;;;;;247.20;66.80;;;;;;;0.66;80.48;100444.70;130940;1254;107519;-75
2023/03/03 07:03:06;;;;;;;104.30;37.60;;;;;;;0.58;80.83;100446.70;130957;1251;107293;-74
2023/03/03 07:06:23;;;;;;;136.00;43.90;;;;;;;0.58;80.61;100441.33;130960;1254;107328;-76
2023/03/03 07:09:30;;;;;;;232.40;53.00;;;;;;;0.55;81.40;100435.31;130985;1251;106115;-75
2023/03/03 07:12:37;;;;;;;209.90;51.00;;;;;;;0.55;81.04;100439.18;130937;1254;107238;-75
2023/03/03 07:15:42;;;;;;;85.10;32.80;;;;;;;0.59;81.22;100435.98;131148;1251;107380;-76
2023/03/03 07:18:52;;;;;;;194.80;58.30;;;;;;;0.65;81.21;100434.11;131054;1254;108705;-75
2023/03/03 07:22:00;;;;;;;101.60;38.50;;;;;;;0.73;81.27;100423.86;131178;1254;107635;-75
2023/03/03 07:25:22;;;;;;;102.70;40.00;;;;;;;0.78;81.01;100409.54;131168;1250;107645;-75
2023/03/03 07:28:29;;;;;;;180.00;61.10;;;;;;;0.93;80.86;100412.22;131086;1255;107548;-75
2023/03/03 07:31:39;;;;;;;165.30;64.30;;;;;;;1.01;80.82;100419.10;131091;1255;108702;-75
2023/03/03 07:34:47;;;;;;;338.70;87.30;;;;;;;1.03;80.59;100409.72;131071;1251;107471;-76
2023/03/03 07:37:53;;;;;;;274.40;72.70;;;;;;;1.11;80.54;100405.74;130941;1254;107698;-76
2023/03/03 07:41:01;;;;;;;189.70;56.60;;;;;;;1.10;80.53;100414.02;130942;1250;107202;-75
2023/03/03 07:44:21;;;;;;;90.00;34.20;;;;;;;1.10;80.66;100410.55;130934;1254;107520;-76
2023/03/03 07:47:29;;;;;;;87.90;33.80;;;;;;;1.11;80.96;100423.25;130898;1255;107484;-75
2023/03/03 07:50:36;;;;;;;60.80;26.60;;;;;;;1.14;80.75;100416.59;131028;1254;109184;-75
2023/03/03 07:53:41;;;;;;;86.50;36.50;;;;;;;1.19;80.69;100416.65;130964;1250;107491;-75
2023/03/03 07:56:48;;;;;;;191.90;60.60;;;;;;;1.32;80.76;100417.88;130950;1254;107424;-76
2023/03/03 08:00:01;;;;;;;231.80;77.00;;;;;;;1.39;80.65;100417.10;130901;1250;107456;-74
2023/03/03 08:03:12;;;;;;;272.00;98.10;;;;;;;1.46;80.53;100417.37;130935;1254;108504;-75
2023/03/03 08:06:36;;;;;;;150.10;71.80;;;;;;;1.52;80.49;100430.31;131020;1250;108688;-77
2023/03/03 08:09:46;;;;;;;112.70;55.00;;;;;;;1.52;80.26;100429.10;131267;1251;107238;-73
2023/03/03 08:12:52;;;;;;;143.60;70.50;;;;;;;1.57;80.48;100423.59;131028;1257;107545;-76
2023/03/03 08:16:02;;;;;;;113.80;55.60;;;;;;;1.59;80.36;100418.70;131178;1250;107467;-76
2023/03/03 08:19:11;;;;;;;76.80;36.50;;;;;;;1.69;80.50;100414.94;131237;1254;108628;-73
2023/03/03 08:22:24;;;;;;;70.70;33.40;;;;;;;1.87;80.50;100418.27;131250;1253;107656;-75
2023/03/03 08:25:30;;;;;;;81.20;39.60;;;;;;;1.99;80.44;100421.73;131127;1253;107650;-74
2023/03/03 08:28:36;;;;;;;73.70;34.10;;;;;;;2.06;80.24;100423.79;131237;1251;107502;-75
2023/03/03 08:31:42;;;;;;;65.10;29.10;;;;;;;2.09;80.37;100426.02;131183;1251;107382;-75
2023/03/03 08:34:47;;;;;;;66.30;31.00;;;;;;;2.15;80.04;100434.81;131051;1253;107529;-74
2023/03/03 08:37:53;;;;;;;57.80;26.50;;;;;;;2.19;79.89;100437.52;130990;1253;107453;-74
2023/03/03 08:40:59;;;;;;;62.80;30.00;;;;;;;2.12;79.69;100443.20;131073;1267;107524;-74
2023/03/03 08:44:05;;;;;;;66.10;31.20;;;;;;;2.02;79.96;100453.12;130983;1256;107390;-73
2023/03/03 08:47:11;;;;;;;55.80;26.70;;;;;;;2.08;80.04;100452.94;131030;1255;107193;-73
2023/03/03 08:50:17;;;;;;;56.10;25.60;;;;;;;2.13;80.10;100444.38;131050;1251;107656;-73
2023/03/03 08:53:24;;;;;;;53.00;25.70;;;;;;;2.24;80.09;100434.42;130999;1254;109296;-76
2023/03/03 08:56:29;;;;;;;64.60;29.60;;;;;;;2.34;79.75;100435.14;130880;1251;107278;-75
2023/03/03 08:59:37;;;;;;;62.20;28.20;;;;;;;2.36;79.18;100437.15;130869;1251;107351;-75
2023/03/03 09:02:43;;;;;;;54.90;27.70;;;;;;;2.32;79.03;100438.31;130887;1251;107389;-75
2023/03/03 09:05:49;;;;;;;52.70;26.40;;;;;;;2.17;79.25;100445.78;130891;1256;107543;-76
2023/03/03 09:08:55;;;;;;;58.10;27.80;;;;;;;2.19;79.18;100442.83;130896;1255;109256;-80
2023/03/03 09:12:13;;;;;;;59.70;27.50;;;;;;;2.08;79.07;100438.72;130841;1256;107540;-74
2023/03/03 09:15:23;;;;;;;63.20;29.90;;;;;;;1.95;79.45;100437.08;131007;1251;107850;-75
2023/03/03 09:18:36;;;;;;;58.40;27.70;;;;;;;1.87;79.77;100441.73;130919;1251;107706;-76
2023/03/03 09:21:42;;;;;;;59.40;28.30;;;;;;;1.96;79.55;100445.42;131024;1251;107314;-72
2023/03/03 09:24:50;;;;;;;58.30;28.00;;;;;;;2.06;79.68;100447.13;131037;1256;108674;-76
2023/03/03 09:27:56;;;;;;;59.90;27.10;;;;;;;2.18;79.83;100444.99;130987;1255;106540;-75
2023/03/03 09:31:04;;;;;;;58.50;28.50;;;;;;;2.28;79.53;100456.46;131012;1255;107446;-73
2023/03/03 09:34:20;;;;;;;65.70;30.20;;;;;;;2.24;79.22;100457.73;131141;1251;107545;-76
2023/03/03 09:37:31;;;;;;;120.50;43.40;;;;;;;2.13;79.49;100458.10;131005;1255;107548;-75
2023/03/03 09:40:55;;;;;;;132.40;42.00;;;;;;;2.04;79.62;100453.39;131036;1256;107474;-74
2023/03/03 09:44:17;;;;;;;55.70;25.80;;;;;;;1.98;79.39;100450.79;131081;1255;107127;-74
2023/03/03 09:47:37;;;;;;;54.60;24.50;;;;;;;1.94;79.56;100444.29;130905;1253;107543;-75
2023/03/03 09:50:55;;;;;;;107.70;37.20;;;;;;;1.87;79.37;100448.96;130871;1250;106289;-75
2023/03/03 09:54:15;;;;;;;112.80;38.10;;;;;;;1.85;79.41;100453.11;131162;1254;106038;-76
2023/03/03 09:57:29;;;;;;;74.50;29.00;;;;;;;1.69;79.18;100455.45;131044;1250;107270;-75
2023/03/03 10:00:45;;;;;;;132.60;43.00;;;;;;;1.59;79.51;100451.14;130976;1251;107512;-75
2023/03/03 10:04:04;;;;;;;187.00;59.30;;;;;;;1.48;79.68;100448.48;131052;1254;107534;-76
2023/03/03 10:07:22;;;;;;;500.40;153.80;;;;;;;1.52;80.01;100449.65;130928;1254;107605;-77
2023/03/03 10:10:45;;;;;;;54.10;23.30;;;;;;;1.66;79.74;100447.95;131002;1250;107568;-77
2023/03/03 10:14:13;;;;;;;51.00;22.10;;;;;;;1.63;79.74;100443.55;130972;1250;107547;-77
2023/03/03 10:17:33;;;;;;;50.30;23.90;;;;;;;1.61;79.86;100437.58;131006;1254;107671;-77
2023/03/03 10:21:02;;;;;;;81.10;32.10;;;;;;;1.58;80.00;100432.48;131064;1251;107436;-78
2023/03/03 10:24:23;;;;;;;54.80;24.80;;;;;;;1.59;79.80;100425.91;130954;1254;107623;-77
2023/03/03 10:27:44;;;;;;;50.50;22.20;;;;;;;1.52;79.60;100431.23;131212;1256;107514;-78
2023/03/03 10:31:03;;;;;;;47.50;22.10;;;;;;;1.51;79.85;100432.13;131398;1250;105891;-74
2023/03/03 10:34:26;;;;;;;43.10;19.80;;;;;;;1.53;79.58;100427.66;131267;1250;107516;-76
2023/03/03 10:37:43;;;;;;;49.30;23.80;;;;;;;1.59;79.87;100425.90;131270;1250;107405;-77
2023/03/03 10:40:57;;;;;;;54.10;24.80;;;;;;;1.75;79.73;100422.30;131000;1254;107384;-77
2023/03/03 10:44:18;;;;;;;54.20;26.40;;;;;;;1.84;79.57;100420.89;131207;1250;107211;-76
2023/03/03 10:47:54;;;;;;;50.80;24.10;;;;;;;1.83;79.13;100413.43;131054;1253;107582;-76
2023/03/03 10:51:12;;;;;;;51.10;25.40;;;;;;;1.65;79.30;100422.02;130992;1251;107248;-72
2023/03/03 10:54:34;;;;;;;51.20;26.10;;;;;;;1.51;79.50;100430.95;130961;1255;107526;-77
2023/03/03 10:57:51;;;;;;;38.60;17.30;;;;;;;1.46;79.51;100435.63;131124;1250;106693;-75
2023/03/03 11:01:07;;;;;;;43.90;21.70;;;;;;;1.33;79.61;100433.56;131168;1254;107421;-75
2023/03/03 11:04:32;;;;;;;40.70;20.20;;;;;;;1.33;79.78;100433.41;131062;1250;106135;-75
2023/03/03 11:07:42;;;;;;;40.90;19.60;;;;;;;1.35;80.01;100430.98;131214;1251;107530;-76
2023/03/03 11:10:58;;;;;;;45.10;22.50;;;;;;;1.36;80.07;100425.67;130926;1251;108684;-75
2023/03/03 11:14:13;;;;;;;46.60;22.20;;;;;;;1.36;80.09;100427.77;131080;1255;107601;-74
2023/03/03 11:17:28;;;;;;;66.80;26.30;;;;;;;1.26;80.27;100418.56;131212;1255;107562;-75
2023/03/03 11:20:41;;;;;;;327.70;80.10;;;;;;;1.28;80.37;100420.57;131239;1251;106560;-73
2023/03/03 11:24:19;;;;;;;157.00;44.80;;;;;;;1.36;80.10;100425.69;131224;1250;107524;-74
2023/03/03 11:27:39;;;;;;;232.00;60.00;;;;;;;1.47;80.07;100428.77;131199;1257;106701;-75
2023/03/03 11:30:58;;;;;;;53.50;21.70;;;;;;;1.48;79.96;100426.03;131177;1250;107525;-74
2023/03/03 11:34:14;;;;;;;50.50;22.90;;;;;;;1.40;80.25;100426.70;131068;1255;107596;-77
2023/03/03 11:37:24;;;;;;;58.00;23.70;;;;;;;1.19;80.84;100430.36;131213;1256;107545;-73
2023/03/03 11:40:39;;;;;;;99.30;34.10;;;;;;;1.17;80.67;100432.40;130988;1254;106646;-75
2023/03/03 11:43:51;;;;;;;75.70;29.20;;;;;;;1.24;80.49;100433.25;131133;1255;107708;-76
2023/03/03 11:47:03;;;;;;;96.80;36.60;;;;;;;1.37;80.56;100432.79;131250;1255;107630;-74
2023/03/03 11:50:16;;;;;;;54.50;23.70;;;;;;;1.41;80.21;100427.85;131196;1250;107470;-74
2023/03/03 11:53:37;;;;;;;40.00;19.50;;;;;;;1.43;80.15;100428.63;131211;1254;107399;-73
2023/03/03 11:56:45;;;;;;;43.60;19.40;;;;;;;1.39;80.39;100427.09;131064;1254;108608;-75
2023/03/03 12:00:00;;;;;;;45.60;20.60;;;;;;;1.26;80.38;100411.88;131030;1255;108713;-73
2023/03/03 12:03:19;;;;;;;44.90;21.00;;;;;;;1.14;81.01;100411.88;131075;1255;107584;-75
2023/03/03 12:06:31;;;;;;;46.00;20.70;;;;;;;0.97;81.14;100413.55;131186;1257;107537;-74
2023/03/03 12:09:45;;;;;;;44.50;20.90;;;;;;;0.91;81.44;100410.05;131070;1256;107584;-76
2023/03/03 12:13:00;;;;;;;42.10;19.50;;;;;;;0.99;81.33;100405.23;131120;1254;109281;-74
2023/03/03 12:16:12;;;;;;;41.50;19.50;;;;;;;1.04;81.47;100412.27;130953;1250;107277;-75
2023/03/03 12:19:31;;;;;;;39.90;19.60;;;;;;;1.06;81.31;100405.86;130933;1261;107245;-75
2023/03/03 12:22:39;;;;;;;38.30;18.30;;;;;;;1.09;81.09;100403.37;131100;1254;107564;-75
2023/03/03 12:25:48;;;;;;;41.20;18.40;;;;;;;1.14;81.12;100402.39;131247;1250;107226;-75
2023/03/03 12:28:59;;;;;;;159.10;60.20;;;;;;;1.20;80.92;100401.40;131244;1255;107506;-74
2023/03/03 12:32:20;;;;;;;81.50;29.80;;;;;;;1.24;80.63;100399.36;131241;1256;107489;-74
2023/03/03 12:35:36;;;;;;;46.70;20.70;;;;;;;1.20;80.84;100398.56;131242;1254;108754;-73
2023/03/03 12:38:48;;;;;;;52.70;21.40;;;;;;;1.07;81.01;100406.67;131306;1256;107512;-75
2023/03/03 12:42:00;;;;;;;;;;;;;;;0.95;81.67;100405.79;131147;1256;108458;-74
2023/03/03 12:45:22;;;;;;;92.80;31.00;;;;;;;0.95;81.76;100408.23;130928;1251;107506;-74
2023/03/03 12:48:36;;;;;;;294.10;88.30;;;;;;;0.83;81.98;100414.52;131231;1255;107541;-74
2023/03/03 12:51:58;;;;;;;39.20;18.80;;;;;;;0.74;82.04;100418.50;131040;1256;107364;-75
2023/03/03 12:55:17;;;;;;;46.60;19.80;;;;;;;0.66;82.13;100419.33;131030;1255;107540;-73
2023/03/03 12:58:37;;;;;;;38.20;17.80;;;;;;;0.66;82.00;100412.66;131228;1251;107513;-76
2023/03/03 13:01:59;;;;;;;42.60;20.40;;;;;;;0.75;81.91;100414.77;131007;1250;107307;-75
2023/03/03 13:05:19;;;;;;;43.40;20.90;;;;;;;0.86;81.72;100419.13;130964;1251;108388;-75
2023/03/03 13:08:48;;;;;;;40.90;19.60;;;;;;;0.74;82.13;100417.14;130931;1255;107472;-75
2023/03/03 13:12:07;;;;;;;44.80;20.60;;;;;;;0.63;82.61;100426.68;131033;1256;107553;-75
2023/03/03 13:15:18;;;;;;;47.50;21.10;;;;;;;0.41;83.32;100421.91;131213;1256;107619;-75
2023/03/03 13:18:40;;;;;;;42.40;19.50;;;;;;;0.33;83.48;100421.15;131285;1250;108488;-74
2023/03/03 13:21:50;;;;;;;46.90;22.00;;;;;;;0.30;83.60;100417.79;131231;1256;106829;-74
2023/03/03 13:25:03;;;;;;;42.60;20.30;;;;;;;0.37;83.18;100414.81;131220;1250;107550;-74
2023/03/03 13:28:11;;;;;;;;;;;;;;;0.39;83.60;100413.27;131219;1266;106222;-74
2023/03/03 13:31:21;;;;;;;40.20;18.30;;;;;;;0.37;83.66;100404.30;131203;1254;107383;-74
2023/03/03 13:34:37;;;;;;;37.80;16.60;;;;;;;0.37;83.24;100401.67;131162;1256;109309;-76
2023/03/03 13:37:47;;;;;;;34.20;15.30;;;;;;;0.41;82.99;100402.49;131210;1256;107262;-76
2023/03/03 13:41:00;;;;;;;32.10;15.90;;;;;;;0.48;82.72;100401.11;131237;1256;107882;-74
2023/03/03 13:44:11;;;;;;;38.50;17.80;;;;;;;0.53;82.75;100399.59;131277;1251;107259;-74
2023/03/03 13:47:25;;;;;;;44.40;19.80;;;;;;;0.47;83.08;100405.16;131238;1263;107581;-74
2023/03/03 13:50:38;;;;;;;349.80;106.60;;;;;;;0.35;83.44;100394.62;131285;1256;107452;-74
2023/03/03 13:53:56;;;;;;;101.30;38.40;;;;;;;0.41;83.16;100390.25;131195;1256;105486;-75
2023/03/03 13:57:20;;;;;;;128.60;53.10;;;;;;;0.40;83.00;100391.55;131016;1250;106608;-75
2023/03/03 14:00:36;;;;;;;59.50;29.00;;;;;;;0.45;82.92;100398.48;130932;1264;107524;-75
2023/03/03 14:03:53;;;;;;;54.10;25.90;;;;;;;0.43;82.74;100393.14;130988;1250;108551;-74
2023/03/03 14:07:11;;;;;;;40.80;19.20;;;;;;;0.48;82.89;100392.52;131013;1256;106615;-76